createdAt,value
2023-03-27T00:01:14.962Z,1.70
2023-03-27T00:03:43.080Z,1.75
2023-03-27T00:06:16.555Z,1.52
2023-03-27T00:08:46.404Z,1.65
2023-03-27T00:11:15.453Z,1.67
2023-03-27T00:13:49.654Z,1.80
2023-03-27T00:16:21.562Z,2.45
2023-03-27T00:18:49.370Z,1.58
2023-03-27T00:21:17.222Z,1.67
2023-03-27T00:23:46.048Z,1.55
2023-03-27T00:26:14.388Z,1.90
2023-03-27T00:28:42.215Z,2.13
2023-03-27T00:31:15.446Z,1.75
2023-03-27T00:33:43.326Z,1.77
2023-03-27T00:36:11.664Z,1.70
2023-03-27T00:38:39.827Z,1.85
2023-03-27T00:41:08.766Z,2.17
2023-03-27T00:43:42.708Z,1.58
2023-03-27T00:46:27.762Z,1.60
2023-03-27T00:48:57.171Z,2.63
2023-03-27T00:51:27.649Z,2.33
2023-03-27T00:53:56.382Z,1.55
2023-03-27T00:56:24.969Z,1.40
2023-03-27T00:58:59.600Z,1.55
2023-03-27T01:01:29.317Z,1.80
2023-03-27T01:04:01.656Z,1.50
2023-03-27T01:06:31.208Z,1.83
2023-03-27T01:08:59.918Z,1.30
2023-03-27T01:11:38.268Z,1.88
2023-03-27T01:14:39.668Z,2.90
2023-03-27T01:17:41.704Z,1.42
2023-03-27T01:20:42.597Z,1.88
2023-03-27T01:23:59.688Z,1.65
2023-03-27T01:27:07.514Z,1.58
2023-03-27T01:29:53.733Z,1.50
2023-03-27T01:32:41.647Z,1.30
2023-03-27T01:35:44.361Z,2.15
2023-03-27T01:38:19.792Z,1.77
2023-03-27T01:41:11.621Z,1.90
2023-03-27T01:44:03.484Z,1.65
2023-03-27T01:46:55.302Z,2.03
2023-03-27T01:49:40.014Z,1.70
2023-03-27T01:52:14.525Z,1.73
2023-03-27T01:54:45.107Z,1.70
2023-03-27T01:57:22.425Z,1.45
2023-03-27T01:59:55.970Z,1.73
2023-03-27T02:02:32.762Z,1.38
2023-03-27T02:05:05.904Z,1.63
2023-03-27T02:07:46.917Z,1.53
2023-03-27T02:10:20.873Z,1.50
2023-03-27T02:13:05.132Z,1.83
2023-03-27T02:15:39.951Z,1.38
2023-03-27T02:18:14.987Z,1.83
2023-03-27T02:20:42.495Z,1.67
2023-03-27T02:23:09.975Z,1.70
2023-03-27T02:25:44.459Z,1.60
2023-03-27T02:28:45.665Z,2.10
2023-03-27T02:31:35.245Z,1.50
2023-03-27T02:34:21.869Z,3.10
2023-03-27T02:37:16.299Z,1.48
2023-03-27T02:40:29.435Z,1.45
2023-03-27T02:43:21.960Z,1.70
2023-03-27T02:45:57.058Z,1.92
2023-03-27T02:48:47.521Z,1.67
2023-03-27T02:51:30.750Z,1.60
2023-03-27T02:54:19.142Z,2.00
2023-03-27T02:56:51.862Z,2.20
2023-03-27T02:59:35.583Z,1.35
2023-03-27T03:02:07.829Z,2.22
2023-03-27T03:04:57.024Z,2.50
2023-03-27T03:07:30.181Z,1.52
2023-03-27T03:09:58.244Z,1.88
2023-03-27T03:12:25.918Z,1.70
2023-03-27T03:14:55.185Z,1.67
2023-03-27T03:17:22.715Z,1.80
2023-03-27T03:19:50.189Z,2.85
2023-03-27T03:22:18.165Z,2.15
2023-03-27T03:24:46.120Z,2.45
2023-03-27T03:27:20.958Z,1.40
2023-03-27T03:29:58.297Z,2.05
2023-03-27T03:32:30.316Z,1.80
2023-03-27T03:34:58.762Z,1.98
2023-03-27T03:37:28.875Z,2.10
2023-03-27T03:39:58.395Z,1.67
2023-03-27T03:42:25.792Z,1.65
2023-03-27T03:44:54.570Z,1.98
2023-03-27T03:47:23.793Z,2.25
2023-03-27T03:49:51.484Z,2.28
2023-03-27T03:52:18.864Z,2.65
2023-03-27T03:54:46.873Z,2.05
2023-03-27T03:57:14.585Z,1.92
2023-03-27T03:59:44.054Z,2.42
2023-03-27T04:02:28.470Z,2.25
2023-03-27T04:05:01.301Z,1.83
2023-03-27T04:07:37.123Z,1.80
2023-03-27T04:10:19.456Z,2.10
2023-03-27T04:12:48.958Z,1.75
2023-03-27T04:15:24.567Z,2.20
2023-03-27T04:18:08.148Z,1.80
2023-03-27T04:20:38.220Z,2.03
2023-03-27T04:23:09.804Z,2.42
2023-03-27T04:25:40.282Z,1.83
2023-03-27T04:28:10.329Z,1.73
2023-03-27T04:30:50.347Z,2.15
2023-03-27T04:33:46.366Z,2.40
2023-03-27T04:36:52.458Z,1.92
2023-03-27T04:39:24.777Z,2.42
2023-03-27T04:41:53.816Z,1.52
2023-03-27T04:44:21.618Z,1.90
2023-03-27T04:46:49.124Z,1.65
2023-03-27T04:49:19.290Z,2.10
2023-03-27T04:51:57.080Z,2.05
2023-03-27T04:54:31.604Z,2.08
2023-03-27T04:57:01.884Z,1.90
2023-03-27T04:59:32.499Z,1.88
2023-03-27T05:02:20.326Z,1.85
2023-03-27T05:05:17.011Z,1.60
2023-03-27T05:07:46.164Z,2.20
2023-03-27T05:10:22.133Z,1.63
2023-03-27T05:12:52.869Z,1.92
2023-03-27T05:15:21.548Z,2.03
2023-03-27T05:17:54.321Z,1.60
2023-03-27T05:20:25.058Z,2.10
2023-03-27T05:22:54.620Z,1.85
2023-03-27T05:25:26.607Z,2.40
2023-03-27T05:27:55.930Z,1.90
2023-03-27T05:33:14.125Z,1.55
2023-03-27T05:35:42.878Z,1.83
2023-03-27T05:38:12.080Z,1.63
2023-03-27T05:40:44.677Z,1.95
2023-03-27T05:43:16.256Z,1.70
2023-03-27T05:45:44.631Z,1.80
2023-03-27T05:48:12.792Z,2.67
2023-03-27T05:50:42.348Z,1.42
2023-03-27T05:53:21.057Z,1.60
2023-03-27T05:56:14.727Z,1.95
2023-03-27T05:58:53.927Z,1.50
2023-03-27T06:01:23.636Z,1.85
2023-03-27T06:03:56.059Z,2.03
2023-03-27T06:06:46.562Z,1.40
2023-03-27T06:09:14.278Z,1.58
2023-03-27T06:11:50.007Z,1.25
2023-03-27T06:14:19.103Z,1.80
2023-03-27T06:17:09.642Z,2.00
2023-03-27T06:19:44.458Z,1.60
2023-03-27T06:22:12.639Z,1.70
2023-03-27T06:24:41.845Z,1.63
2023-03-27T06:27:11.921Z,1.90
2023-03-27T06:29:41.964Z,1.50
2023-03-27T06:32:11.733Z,1.90
2023-03-27T06:34:46.570Z,2.03
2023-03-27T06:37:36.988Z,2.25
2023-03-27T06:42:39.674Z,1.65
2023-03-27T06:45:27.495Z,2.45
2023-03-27T06:48:27.129Z,1.60
2023-03-27T06:50:57.457Z,2.75
2023-03-27T06:53:28.192Z,2.42
2023-03-27T06:55:57.671Z,2.33
2023-03-27T06:58:27.641Z,1.70
2023-03-27T07:00:56.029Z,1.45
2023-03-27T07:03:23.566Z,1.45
2023-03-27T07:06:09.518Z,2.10
2023-03-27T07:08:45.494Z,2.17
2023-03-27T07:11:15.212Z,2.42
2023-03-27T07:13:49.864Z,1.80
2023-03-27T07:16:24.151Z,2.47
2023-03-27T07:18:51.715Z,3.13
2023-03-27T07:21:19.376Z,1.83
2023-03-27T07:23:47.250Z,2.10
2023-03-27T07:26:19.232Z,1.95
2023-03-27T07:29:00.991Z,2.38
2023-03-27T07:31:49.126Z,2.10
2023-03-27T07:34:17.400Z,2.03
2023-03-27T07:37:02.876Z,2.00
2023-03-27T07:39:31.825Z,2.38
2023-03-27T07:41:59.602Z,2.00
2023-03-27T07:44:32.903Z,2.17
2023-03-27T07:47:04.948Z,2.15
2023-03-27T07:49:39.211Z,2.00
2023-03-27T07:52:10.338Z,4.05
2023-03-27T07:54:48.838Z,2.38
2023-03-27T07:57:19.386Z,2.10
2023-03-27T07:59:54.465Z,2.42
2023-03-27T08:02:32.009Z,2.85
2023-03-27T08:05:05.253Z,2.53
2023-03-27T08:07:36.394Z,1.95
2023-03-27T08:10:06.412Z,2.10
2023-03-27T08:12:45.875Z,2.08
2023-03-27T08:15:14.548Z,2.15
2023-03-27T08:17:42.945Z,2.08
2023-03-27T08:20:15.173Z,2.22
2023-03-27T08:22:47.710Z,2.35
2023-03-27T08:25:34.677Z,1.75
2023-03-27T08:28:07.140Z,2.22
2023-03-27T08:30:35.470Z,2.03
2023-03-27T08:33:03.941Z,2.92
2023-03-27T08:35:32.529Z,2.15
2023-03-27T08:38:01.432Z,2.08
2023-03-27T08:40:53.369Z,2.45
2023-03-27T08:43:42.680Z,2.20
2023-03-27T08:46:23.622Z,2.20
2023-03-27T08:49:08.476Z,2.47
2023-03-27T08:51:45.524Z,1.83
2023-03-27T08:54:24.474Z,1.90
2023-03-27T08:56:53.609Z,1.90
2023-03-27T08:59:25.434Z,2.17
2023-03-27T09:01:58.564Z,1.77
2023-03-27T09:04:32.582Z,1.50
2023-03-27T09:07:03.956Z,1.40
2023-03-27T09:09:48.941Z,2.05
2023-03-27T09:12:33.324Z,2.00
2023-03-27T09:15:26.161Z,1.58
2023-03-27T09:18:11.216Z,2.03
2023-03-27T09:20:57.083Z,1.90
2023-03-27T09:23:42.724Z,1.88
2023-03-27T09:26:43.381Z,1.90
2023-03-27T09:29:38.600Z,1.67
2023-03-27T09:32:33.516Z,1.50
2023-03-27T09:35:02.869Z,1.92
2023-03-27T09:37:30.949Z,2.05
2023-03-27T09:40:00.922Z,1.95
2023-03-27T09:42:39.250Z,1.60
2023-03-27T09:45:10.120Z,1.70
2023-03-27T09:48:02.873Z,1.35
2023-03-27T09:50:44.517Z,1.65
2023-03-27T09:53:28.335Z,1.52
2023-03-27T09:56:19.468Z,1.83
2023-03-27T09:58:57.271Z,1.70
2023-03-27T10:01:37.933Z,1.92
2023-03-27T10:04:19.794Z,1.90
2023-03-27T10:07:08.252Z,1.35
2023-03-27T10:10:12.721Z,1.40
2023-03-27T10:13:04.368Z,2.33
2023-03-27T10:15:39.149Z,2.08
2023-03-27T10:18:30.435Z,1.95
2023-03-27T10:21:27.437Z,1.58
2023-03-27T10:24:18.786Z,1.50
2023-03-27T10:27:24.839Z,1.40
2023-03-27T10:30:33.647Z,1.40
2023-03-27T10:33:37.220Z,1.50
2023-03-27T10:36:31.420Z,1.58
2023-03-27T10:39:11.759Z,1.63
2023-03-27T10:41:51.661Z,1.20
2023-03-27T10:44:21.160Z,1.23
2023-03-27T10:46:55.343Z,1.35
2023-03-27T10:49:38.310Z,1.80
2023-03-27T10:52:29.467Z,1.40
2023-03-27T10:55:44.541Z,1.48
2023-03-27T10:58:26.483Z,1.30
2023-03-27T11:01:08.689Z,1.30
2023-03-27T11:04:05.509Z,3.53
2023-03-27T11:06:43.923Z,1.15
2023-03-27T11:09:17.996Z,1.00
2023-03-27T11:12:04.407Z,0.95
2023-03-27T11:15:02.205Z,1.50
2023-03-27T11:17:41.049Z,1.30
2023-03-27T11:20:44.252Z,1.00
2023-03-27T11:23:20.701Z,1.05
2023-03-27T11:26:11.057Z,1.05
2023-03-27T11:28:49.654Z,1.10
2023-03-27T11:31:23.919Z,1.05
2023-03-27T11:34:00.668Z,1.33
2023-03-27T11:36:39.488Z,1.25
2023-03-27T11:39:22.764Z,1.30
2023-03-27T11:41:55.300Z,0.90
2023-03-27T11:44:25.295Z,1.00
2023-03-27T11:47:33.780Z,1.05
2023-03-27T11:50:19.875Z,1.00
2023-03-27T11:53:06.831Z,1.02
2023-03-27T11:56:05.007Z,1.08
2023-03-27T11:58:39.028Z,1.33
2023-03-27T12:01:27.009Z,0.90
2023-03-27T12:04:37.021Z,0.88
2023-03-27T12:08:04.641Z,0.95
2023-03-27T12:10:34.721Z,0.77
2023-03-27T12:13:34.864Z,1.10
2023-03-27T12:16:31.871Z,1.20
2023-03-27T12:19:36.266Z,1.15
2023-03-27T12:22:45.582Z,1.02
2023-03-27T12:25:37.706Z,1.60
2023-03-27T12:31:23.243Z,1.42
2023-03-27T12:34:30.685Z,1.00
2023-03-27T12:36:59.957Z,1.48
2023-03-27T12:39:28.810Z,0.98
2023-03-27T12:42:13.493Z,2.55
2023-03-27T12:45:05.286Z,1.20
2023-03-27T12:47:32.849Z,1.40
2023-03-27T12:50:19.804Z,1.17
2023-03-27T12:52:53.396Z,1.10
2023-03-27T12:55:35.826Z,1.00
2023-03-27T12:58:05.484Z,1.13
2023-03-27T13:00:59.683Z,1.23
2023-03-27T13:03:52.125Z,1.10
2023-03-27T13:06:36.473Z,1.10
2023-03-27T13:09:35.370Z,0.80
2023-03-27T13:12:23.041Z,0.90
2023-03-27T13:14:58.444Z,1.13
2023-03-27T13:17:48.565Z,1.42
2023-03-27T13:20:55.634Z,1.75
2023-03-27T13:23:53.719Z,1.10
2023-03-27T13:26:59.159Z,1.00
2023-03-27T13:29:32.707Z,1.23
2023-03-27T13:32:33.806Z,1.60
2023-03-27T13:35:21.790Z,2.03
2023-03-27T13:37:49.473Z,1.30
2023-03-27T13:40:27.197Z,1.02
2023-03-27T13:43:26.019Z,1.25
2023-03-27T13:46:06.039Z,1.20
2023-03-27T13:48:54.900Z,1.23
2023-03-27T13:52:04.570Z,1.38
2023-03-27T13:55:16.632Z,1.30
2023-03-27T13:58:23.559Z,1.13
2023-03-27T14:01:12.490Z,1.60
2023-03-27T14:04:17.677Z,1.60
2023-03-27T14:07:37.853Z,1.25
2023-03-27T14:10:32.770Z,1.00
2023-03-27T14:13:15.896Z,1.88
2023-03-27T14:16:15.198Z,1.40
2023-03-27T14:19:23.734Z,1.50
2023-03-27T14:22:11.793Z,1.20
2023-03-27T14:24:52.434Z,1.50
2023-03-27T14:27:36.313Z,1.30
2023-03-27T14:30:14.253Z,1.40
2023-03-27T14:32:43.236Z,1.75
2023-03-27T14:35:36.398Z,1.52
2023-03-27T14:38:17.227Z,1.45
2023-03-27T14:40:53.195Z,1.17
2023-03-27T14:43:32.516Z,1.27
2023-03-27T14:46:06.021Z,1.50
2023-03-27T14:48:37.156Z,1.10
2023-03-27T14:51:19.441Z,1.57
2023-03-27T14:53:50.927Z,1.45
2023-03-27T14:56:28.269Z,1.65
2023-03-27T14:59:00.041Z,1.20
2023-03-27T15:01:36.169Z,1.67
2023-03-27T15:04:07.436Z,1.30
2023-03-27T15:06:37.571Z,1.35
2023-03-27T15:09:16.163Z,1.95
2023-03-27T15:12:02.192Z,1.42
2023-03-27T15:14:32.763Z,1.55
2023-03-27T15:17:06.940Z,1.52
2023-03-27T15:19:45.375Z,1.50
2023-03-27T15:22:23.192Z,1.67
2023-03-27T15:25:03.084Z,1.42
2023-03-27T15:27:32.030Z,1.58
2023-03-27T15:30:04.705Z,1.58
2023-03-27T15:32:43.642Z,1.27
2023-03-27T15:35:18.073Z,1.50
2023-03-27T15:37:46.098Z,1.80
2023-03-27T15:40:42.338Z,1.40
2023-03-27T15:43:13.121Z,1.15
2023-03-27T15:45:55.814Z,1.63
2023-03-27T15:48:32.519Z,1.40
2023-03-27T15:51:06.746Z,1.23
2023-03-27T15:53:37.231Z,1.70
2023-03-27T15:56:19.584Z,1.60
2023-03-27T15:58:51.902Z,2.30
2023-03-27T16:01:52.521Z,1.50
2023-03-27T16:04:25.826Z,1.30
2023-03-27T16:07:05.290Z,1.60
2023-03-27T16:09:51.600Z,1.38
2023-03-27T16:12:25.704Z,1.63
2023-03-27T16:14:57.386Z,1.83
2023-03-27T16:17:37.681Z,1.52
2023-03-27T16:20:12.671Z,1.52
2023-03-27T16:22:40.583Z,1.45
2023-03-27T16:25:11.424Z,2.17
2023-03-27T16:30:19.883Z,3.15
2023-03-27T16:32:47.923Z,2.20
2023-03-27T16:35:15.930Z,1.40
2023-03-27T16:37:43.621Z,2.10
2023-03-27T16:40:11.541Z,3.20
2023-03-27T16:42:39.128Z,2.20
2023-03-27T16:45:07.241Z,1.65
2023-03-27T16:47:35.062Z,1.70
2023-03-27T16:52:34.242Z,1.60
2023-03-27T16:55:02.367Z,2.15
2023-03-27T16:57:30.625Z,1.60
2023-03-27T16:59:58.127Z,2.35
2023-03-27T17:02:26.619Z,2.38
2023-03-27T17:04:54.367Z,2.13
2023-03-27T17:07:21.902Z,1.70
2023-03-27T17:09:49.370Z,3.30
2023-03-27T17:12:17.214Z,2.60
2023-03-27T17:14:45.296Z,1.85
2023-03-27T17:17:12.916Z,1.83
2023-03-27T17:19:40.317Z,1.45
2023-03-27T17:22:07.964Z,1.75
2023-03-27T17:24:45.931Z,1.27
2023-03-27T17:27:24.111Z,1.30
2023-03-27T17:29:56.262Z,1.30
2023-03-27T17:32:27.379Z,1.75
2023-03-27T17:34:55.342Z,2.28
2023-03-27T17:37:23.965Z,2.13
2023-03-27T17:39:51.761Z,2.10
2023-03-27T17:42:19.337Z,2.28
2023-03-27T17:44:46.952Z,2.08
2023-03-27T17:47:14.791Z,2.63
2023-03-27T17:49:43.305Z,1.55
2023-03-27T17:52:13.426Z,1.83
2023-03-27T17:54:41.525Z,5.43
2023-03-27T17:57:09.244Z,19.65
2023-03-27T17:59:38.569Z,11.02
2023-03-27T18:02:07.308Z,8.25
2023-03-27T18:04:35.059Z,5.28
2023-03-27T18:07:02.603Z,11.18
2023-03-27T18:09:33.145Z,14.18
2023-03-27T18:12:01.120Z,30.65
2023-03-27T18:14:29.018Z,23.20
2023-03-27T18:16:56.687Z,23.77
2023-03-27T18:19:25.218Z,6.30
2023-03-27T18:21:52.816Z,5.32
2023-03-27T18:24:21.280Z,4.60
2023-03-27T18:26:48.876Z,6.07
2023-03-27T18:29:16.539Z,3.53
2023-03-27T18:31:45.011Z,5.32
2023-03-27T18:34:12.750Z,3.28
2023-03-27T18:36:41.598Z,5.40
2023-03-27T18:39:09.978Z,6.75
2023-03-27T18:41:39.678Z,6.97
2023-03-27T18:44:07.422Z,6.10
2023-03-27T18:46:34.987Z,6.30
2023-03-27T18:49:13.470Z,6.68
2023-03-27T18:51:45.297Z,7.03
2023-03-27T18:54:13.358Z,5.30
2023-03-27T18:56:41.005Z,5.53
2023-03-27T18:59:11.135Z,5.63
2023-03-27T19:01:38.646Z,4.00
2023-03-27T19:04:06.223Z,4.20
2023-03-27T19:06:36.166Z,4.80
2023-03-27T19:09:03.935Z,2.88
2023-03-27T19:11:31.422Z,3.15
2023-03-27T19:14:18.887Z,3.03
2023-03-27T19:17:16.599Z,4.20
2023-03-27T19:20:02.998Z,3.65
2023-03-27T19:22:49.944Z,4.00
2023-03-27T19:25:34.125Z,3.60
2023-03-27T19:28:03.350Z,5.88
2023-03-27T19:30:32.367Z,5.65
2023-03-27T19:33:00.380Z,7.45
2023-03-27T19:35:28.378Z,9.68
2023-03-27T19:37:55.891Z,5.07
2023-03-27T19:40:24.283Z,4.07
2023-03-27T19:42:51.745Z,3.95
2023-03-27T19:45:19.382Z,4.43
2023-03-27T19:47:48.737Z,3.88
2023-03-27T19:50:16.258Z,3.50
2023-03-27T19:53:05.381Z,4.25
2023-03-27T19:55:35.871Z,4.40
2023-03-27T19:58:03.935Z,2.92
2023-03-27T20:00:38.307Z,3.28
2023-03-27T20:03:10.200Z,2.95
2023-03-27T20:05:45.728Z,3.10
2023-03-27T20:08:13.116Z,2.97
2023-03-27T20:10:40.585Z,3.47
2023-03-27T20:13:08.065Z,3.83
2023-03-27T20:15:38.867Z,3.70
2023-03-27T20:18:06.463Z,5.30
2023-03-27T20:20:34.511Z,4.20
2023-03-27T20:23:03.156Z,4.03
2023-03-27T20:25:33.648Z,2.70
2023-03-27T20:28:02.662Z,2.40
2023-03-27T20:30:32.080Z,2.67
2023-03-27T20:33:03.131Z,2.40
2023-03-27T20:38:04.404Z,2.30
2023-03-27T20:40:53.134Z,2.88
2023-03-27T20:43:27.733Z,1.90
2023-03-27T20:45:58.975Z,2.38
2023-03-27T20:48:32.443Z,2.08
2023-03-27T20:51:02.936Z,2.20
2023-03-27T20:53:33.650Z,3.00
2023-03-27T20:56:04.862Z,3.83
2023-03-27T21:01:05.140Z,4.20
2023-03-27T21:03:35.474Z,2.95
2023-03-27T21:06:05.933Z,2.20
2023-03-27T21:08:34.696Z,1.92
2023-03-27T21:11:04.612Z,2.28
2023-03-27T21:13:32.337Z,2.17
2023-03-27T21:16:00.472Z,2.03
2023-03-27T21:18:28.190Z,2.20
2023-03-27T21:20:56.034Z,2.40
2023-03-27T21:23:23.871Z,2.03
2023-03-27T21:25:51.805Z,2.92
2023-03-27T21:28:19.624Z,2.20
2023-03-27T21:30:48.618Z,2.00
2023-03-27T21:33:17.335Z,1.98
2023-03-27T21:35:49.529Z,1.90
2023-03-27T21:38:18.561Z,2.28
2023-03-27T21:40:47.422Z,1.70
2023-03-27T21:43:15.658Z,2.10
2023-03-27T21:45:43.361Z,1.73
2023-03-27T21:48:12.638Z,2.60
2023-03-27T21:50:40.310Z,1.48
2023-03-27T21:53:07.924Z,2.42
2023-03-27T21:55:37.391Z,1.60
2023-03-27T21:58:06.118Z,1.85
2023-03-27T22:00:34.050Z,2.08
2023-03-27T22:03:01.861Z,1.50
2023-03-27T22:05:29.614Z,1.90
2023-03-27T22:07:57.754Z,1.75
2023-03-27T22:10:25.748Z,2.30
2023-03-27T22:12:53.562Z,2.33
2023-03-27T22:15:21.136Z,1.77
2023-03-27T22:17:49.138Z,1.88
2023-03-27T22:20:17.119Z,1.90
2023-03-27T22:22:44.969Z,1.80
2023-03-27T22:25:12.783Z,1.88
2023-03-27T22:27:40.718Z,1.60
2023-03-27T22:30:09.023Z,1.52
2023-03-27T22:32:36.554Z,1.60
2023-03-27T22:35:04.335Z,1.52
2023-03-27T22:37:36.316Z,1.40
2023-03-27T22:40:06.114Z,1.20
2023-03-27T22:42:34.005Z,1.20
2023-03-27T22:45:01.403Z,1.10
2023-03-27T22:47:31.178Z,1.17
2023-03-27T22:50:00.053Z,1.15
2023-03-27T22:52:27.685Z,1.23
2023-03-27T22:54:55.428Z,1.38
2023-03-27T22:57:23.060Z,1.40
2023-03-27T22:59:51.054Z,1.20
2023-03-27T23:02:18.733Z,1.30
2023-03-27T23:04:46.304Z,1.15
2023-03-27T23:07:13.836Z,1.33
2023-03-27T23:09:41.394Z,1.10
2023-03-27T23:12:08.974Z,1.52
2023-03-27T23:14:36.509Z,1.27
2023-03-27T23:17:04.378Z,1.20
2023-03-27T23:19:31.839Z,1.25
2023-03-27T23:21:59.370Z,1.20
2023-03-27T23:24:26.828Z,1.80
2023-03-27T23:26:54.267Z,1.48
2023-03-27T23:29:22.055Z,1.85
2023-03-27T23:31:49.703Z,1.65
2023-03-27T23:34:17.229Z,1.65
2023-03-27T23:36:44.708Z,1.73
2023-03-27T23:39:12.141Z,1.52
2023-03-27T23:41:39.544Z,2.30
2023-03-27T23:44:07.149Z,2.20
2023-03-27T23:46:34.614Z,1.90
2023-03-27T23:49:02.142Z,1.85
2023-03-27T23:51:29.850Z,1.73
2023-03-27T23:53:57.357Z,1.67
2023-03-27T23:56:24.909Z,1.98
2023-03-27T23:58:52.358Z,1.70
